Kvitbjoern — LM9158 — position and weather

sailwx.info

Track history (hours):
 
Tides and Currents Weather Stations Pressure Air Temp Water Temp Dewpoint Dewpoint Depression Visibility Wind Speed Wind Dir Waves Ship Positions

Kvitbjoern

Last reported at 2014-Sep-20 16:33 UTC. Time now 2014-Sep-20 17:57 UTC.
Position N 66°22' E 012°21'.

Length 10 m.

Type: Fishing. MMSI: 257454420.

Date/timePositionNaut miles runAvg speedWind from/ knotsBaromVisibWave heightAir tempDewpointWater temp
2014-Sep-20 16:33N 66°22' E 012°21'1 0.6
2014-Sep-20 15:33N 66°22' E 012°22'5 4.4
2014-Sep-20 14:30N 66°24' E 012°33'2 1.7
2014-Sep-20 13:14N 66°22' E 012°33'4 5.2
2014-Sep-20 12:30N 66°22' E 012°24'0 0.3
2014-Sep-20 11:28N 66°22' E 012°23'0 0.2
2014-Sep-20 10:33N 66°22' E 012°23'0 0.4
2014-Sep-20 09:27N 66°21' E 012°23'0 0.1
2014-Sep-20 08:30N 66°21' E 012°24'1 0.7
2014-Sep-20 07:26N 66°22' E 012°24'1 1.3
2014-Sep-20 06:30N 66°23' E 012°26'0 0.3
2014-Sep-20 05:28N 66°23' E 012°26'1 0.9
2014-Sep-20 04:33N 66°23' E 012°25'1 1.4
2014-Sep-20 03:33N 66°22' E 012°21'0 0.0
2014-Sep-19 13:16N 66°22' E 012°21'0 0.0
2014-Sep-19 12:28N 66°22' E 012°21'0 0.0
2014-Sep-19 11:28N 66°22' E 012°21'0 0.0
2014-Sep-19 10:28N 66°22' E 012°21'0 0.0
2014-Sep-19 09:28N 66°22' E 012°21'0 0.0
2014-Sep-18 17:08N 66°22' E 012°21'0 0.0
2014-Sep-18 16:32N 66°22' E 012°21'0 0.4
2014-Sep-18 15:32N 66°22' E 012°22'3 2.6
2014-Sep-18 14:32N 66°22' E 012°29'1 0.3
2014-Sep-18 12:33N 66°22' E 012°30'3 2.8
2014-Sep-18 11:31N 66°22' E 012°23'1 0.6
2014-Sep-18 10:33N 66°22' E 012°23'0 0.3
2014-Sep-18 09:31N 66°22' E 012°23'1 0.6
2014-Sep-18 08:28N 66°22' E 012°23'1 0.6
2014-Sep-18 07:28N 66°23' E 012°24'1 0.6
2014-Sep-18 06:32N 66°23' E 012°26'0 0.5
2014-Sep-18 05:33N 66°23' E 012°26'0 0.2
2014-Sep-18 04:29N 66°23' E 012°26'2 2.0
2014-Sep-18 03:28N 66°22' E 012°21'0 0.0
2014-Sep-17 16:27N 66°22' E 012°21'0 0.0
2014-Sep-17 15:33N 66°22' E 012°21'4 4.5
2014-Sep-17 14:33N 66°24' E 012°32'1 1.1
2014-Sep-17 13:13N 66°23' E 012°35'3 5.1
2014-Sep-17 12:33N 66°23' E 012°27'1 0.7
2014-Sep-17 11:33N 66°23' E 012°25'0 0.3
2014-Sep-17 10:32N 66°23' E 012°24'1 0.6
2014-Sep-17 09:31N 66°22' E 012°23'0 0.4
2014-Sep-17 08:29N 66°22' E 012°24'1 0.6
2014-Sep-17 07:33N 66°22' E 012°23'0 0.2
2014-Sep-17 06:33N 66°22' E 012°23'0 0.4
2014-Sep-17 05:33N 66°21' E 012°23'0 0.2
2014-Sep-17 04:32N 66°21' E 012°23'1 1.1
2014-Sep-17 03:33N 66°22' E 012°21'1 0.1
2014-Sep-16 14:33N 66°23' E 012°25'4 1.7
2014-Sep-16 12:33N 66°22' E 012°33'4 4.2
2014-Sep-16 11:33N 66°21' E 012°23'0 0.3
2014-Sep-16 10:33N 66°22' E 012°23'0 0.3
2014-Sep-16 09:21N 66°22' E 012°23'1 0.7
2014-Sep-16 08:32N 66°22' E 012°24'1 1.4
2014-Sep-16 07:33N 66°23' E 012°26'0 0.3
2014-Sep-16 06:30N 66°24' E 012°26'1 1.0
2014-Sep-16 05:31N 66°23' E 012°26'1 0.5
2014-Sep-16 04:28N 66°23' E 012°25'1 1.5
2014-Sep-16 03:32N 66°22' E 012°21'0 0.0
2014-Sep-15 15:33N 66°22' E 012°22'4 3.9
2014-Sep-15 14:25N 66°22' E 012°32'2 1.2
2014-Sep-15 12:33N 66°22' E 012°27'2 1.5
2014-Sep-15 11:30N 66°23' E 012°24'0 0.3
2014-Sep-15 10:33N 66°22' E 012°23'1 0.9
2014-Sep-15 09:33N 66°21' E 012°23'0 0.3
2014-Sep-15 08:30N 66°22' E 012°23'0 0.3
2014-Sep-15 07:30N 66°22' E 012°23'0 0.2
2014-Sep-15 06:33N 66°22' E 012°23'1 0.9
2014-Sep-15 05:33N 66°23' E 012°25'1 0.9
2014-Sep-15 04:31N 66°23' E 012°26'2 2.1
2014-Sep-15 03:31N 66°22' E 012°21'0 0.0
2014-Sep-13 15:28N 66°22' E 012°21'2 2.7
2014-Sep-13 14:33N 66°22' E 012°27'2 0.9
2014-Sep-13 12:16N 66°22' E 012°32'3 4.3
2014-Sep-13 11:31N 66°23' E 012°25'0 0.1
2014-Sep-13 10:33N 66°23' E 012°25'0 0.3
2014-Sep-13 09:31N 66°23' E 012°26'1 1.1
2014-Sep-13 08:22N 66°22' E 012°23'0 0.4
2014-Sep-13 07:33N 66°22' E 012°23'0 0.2
2014-Sep-13 06:32N 66°22' E 012°22'1 0.5
2014-Sep-13 05:31N 66°21' E 012°24'1 1.1
2014-Sep-13 04:28N 66°23' E 012°24'1 0.8
2014-Sep-13 03:34N 66°22' E 012°22'0 0.0
2014-Sep-12 15:31N 66°22' E 012°21'0 0.0
2014-Sep-12 14:24N 66°22' E 012°21'  
Track history (hours):
 
Tides and Currents Weather Stations Pressure Air Temp Water Temp Dewpoint Dewpoint Depression Visibility Wind Speed Wind Dir Waves Ship Positions

Kvitbjoern

Last reported at 2014-Sep-20 16:33 UTC. Time now 2014-Sep-20 17:57 UTC.
Position N 66°22' E 012°21'.

Length 10 m.

Type: Fishing. MMSI: 257454420.

Date/timePositionNaut miles runAvg speedWind from/ knotsBaromVisibWave heightAir tempDewpointWater temp
2014-Sep-20 16:33N 66°22' E 012°21'1 0.6
2014-Sep-20 15:33N 66°22' E 012°22'5 4.4
2014-Sep-20 14:30N 66°24' E 012°33'2 1.7
2014-Sep-20 13:14N 66°22' E 012°33'4 5.2
2014-Sep-20 12:30N 66°22' E 012°24'0 0.3
2014-Sep-20 11:28N 66°22' E 012°23'0 0.2
2014-Sep-20 10:33N 66°22' E 012°23'0 0.4
2014-Sep-20 09:27N 66°21' E 012°23'0 0.1
2014-Sep-20 08:30N 66°21' E 012°24'1 0.7
2014-Sep-20 07:26N 66°22' E 012°24'1 1.3
2014-Sep-20 06:30N 66°23' E 012°26'0 0.3
2014-Sep-20 05:28N 66°23' E 012°26'1 0.9
2014-Sep-20 04:33N 66°23' E 012°25'1 1.4
2014-Sep-20 03:33N 66°22' E 012°21'0 0.0
2014-Sep-19 13:16N 66°22' E 012°21'0 0.0
2014-Sep-19 12:28N 66°22' E 012°21'0 0.0
2014-Sep-19 11:28N 66°22' E 012°21'0 0.0
2014-Sep-19 10:28N 66°22' E 012°21'0 0.0
2014-Sep-19 09:28N 66°22' E 012°21'0 0.0
2014-Sep-18 17:08N 66°22' E 012°21'0 0.0
2014-Sep-18 16:32N 66°22' E 012°21'0 0.4
2014-Sep-18 15:32N 66°22' E 012°22'3 2.6
2014-Sep-18 14:32N 66°22' E 012°29'1 0.3
2014-Sep-18 12:33N 66°22' E 012°30'3 2.8
2014-Sep-18 11:31N 66°22' E 012°23'1 0.6
2014-Sep-18 10:33N 66°22' E 012°23'0 0.3
2014-Sep-18 09:31N 66°22' E 012°23'1 0.6
2014-Sep-18 08:28N 66°22' E 012°23'1 0.6
2014-Sep-18 07:28N 66°23' E 012°24'1 0.6
2014-Sep-18 06:32N 66°23' E 012°26'0 0.5
2014-Sep-18 05:33N 66°23' E 012°26'0 0.2
2014-Sep-18 04:29N 66°23' E 012°26'2 2.0
2014-Sep-18 03:28N 66°22' E 012°21'0 0.0
2014-Sep-17 16:27N 66°22' E 012°21'0 0.0
2014-Sep-17 15:33N 66°22' E 012°21'4 4.5
2014-Sep-17 14:33N 66°24' E 012°32'1 1.1
2014-Sep-17 13:13N 66°23' E 012°35'3 5.1
2014-Sep-17 12:33N 66°23' E 012°27'1 0.7
2014-Sep-17 11:33N 66°23' E 012°25'0 0.3
2014-Sep-17 10:32N 66°23' E 012°24'1 0.6
2014-Sep-17 09:31N 66°22' E 012°23'0 0.4
2014-Sep-17 08:29N 66°22' E 012°24'1 0.6
2014-Sep-17 07:33N 66°22' E 012°23'0 0.2
2014-Sep-17 06:33N 66°22' E 012°23'0 0.4
2014-Sep-17 05:33N 66°21' E 012°23'0 0.2
2014-Sep-17 04:32N 66°21' E 012°23'1 1.1
2014-Sep-17 03:33N 66°22' E 012°21'1 0.1
2014-Sep-16 14:33N 66°23' E 012°25'4 1.7
2014-Sep-16 12:33N 66°22' E 012°33'4 4.2
2014-Sep-16 11:33N 66°21' E 012°23'0 0.3
2014-Sep-16 10:33N 66°22' E 012°23'0 0.3
2014-Sep-16 09:21N 66°22' E 012°23'1 0.7
2014-Sep-16 08:32N 66°22' E 012°24'1 1.4
2014-Sep-16 07:33N 66°23' E 012°26'0 0.3
2014-Sep-16 06:30N 66°24' E 012°26'1 1.0
2014-Sep-16 05:31N 66°23' E 012°26'1 0.5
2014-Sep-16 04:28N 66°23' E 012°25'1 1.5
2014-Sep-16 03:32N 66°22' E 012°21'0 0.0
2014-Sep-15 15:33N 66°22' E 012°22'4 3.9
2014-Sep-15 14:25N 66°22' E 012°32'2 1.2
2014-Sep-15 12:33N 66°22' E 012°27'2 1.5
2014-Sep-15 11:30N 66°23' E 012°24'0 0.3
2014-Sep-15 10:33N 66°22' E 012°23'1 0.9
2014-Sep-15 09:33N 66°21' E 012°23'0 0.3
2014-Sep-15 08:30N 66°22' E 012°23'0 0.3
2014-Sep-15 07:30N 66°22' E 012°23'0 0.2
2014-Sep-15 06:33N 66°22' E 012°23'1 0.9
2014-Sep-15 05:33N 66°23' E 012°25'1 0.9
2014-Sep-15 04:31N 66°23' E 012°26'2 2.1
2014-Sep-15 03:31N 66°22' E 012°21'0 0.0
2014-Sep-13 15:28N 66°22' E 012°21'2 2.7
2014-Sep-13 14:33N 66°22' E 012°27'2 0.9
2014-Sep-13 12:16N 66°22' E 012°32'3 4.3
2014-Sep-13 11:31N 66°23' E 012°25'0 0.1
2014-Sep-13 10:33N 66°23' E 012°25'0 0.3
2014-Sep-13 09:31N 66°23' E 012°26'1 1.1
2014-Sep-13 08:22N 66°22' E 012°23'0 0.4
2014-Sep-13 07:33N 66°22' E 012°23'0 0.2
2014-Sep-13 06:32N 66°22' E 012°22'1 0.5
2014-Sep-13 05:31N 66°21' E 012°24'1 1.1
2014-Sep-13 04:28N 66°23' E 012°24'1 0.8
2014-Sep-13 03:34N 66°22' E 012°22'0 0.0
2014-Sep-12 15:31N 66°22' E 012°21'0 0.0
2014-Sep-12 14:24N 66°22' E 012°21'  

Dump ship's entire track history